CYDP/YDP METAR and TAF weather

Enter ICAO airport designator
Station Type Date Time Source
CYDP METAR 2020/09/24 11:00 UTC NOAA

CYDP 241100Z 30019G25KT 15SM -RA BKN017 OVC080 07/07 A2910 RMK SC6AS2 G39 PAST HR SLP857 DENSITY ALT 100FT


Station Type Date Time Source
CYDP Decoded METAR 2020/09/24 11:00 UTC NOAA

Nain, Nfld, Canada (CYDP) 56-33N 061-41W 7M
Sep 24, 2020 - 07:00 AM EDT / 2020.09.24 1100 UTC
Wind: from the WNW (300 degrees) at 22 MPH (19 KT) gusting to 29 MPH (25 KT):0
Visibility: 15 mile(s):0
Sky conditions: overcast
Weather: light rain
Temperature: 44 F (7 C)
Dew Point: 44 F (7 C)
Relative Humidity: 100%
Pressure (altimeter): 29.1 in. Hg (985 hPa)
ob: CYDP 241100Z 30019G25KT 15SM -RA BKN017 OVC080 07/07 A2910 RMK SC6AS2 G39 PAST HR SLP857 DENSITY ALT 100FT
cycle: 11

Station Type Date Time Source
CYDP TAF 2020/09/24 10:48 UTC NOAA

TAF TAF CYDP 240944Z 2410/2422 33018G28KT 3SM -RA BR OVC009
TEMPO 2410/2413 6SM -RA BR OVC015
FM241300 30015G25KT P6SM OVC025
TEMPO 2413/2417 5SM -SHRA BR OVC020
BECMG 2419/2421 28015G25KT
RMK NXT FCST BY 241400Z

Example: see airport list